Time;durP1;ratioP1;P1;durP2;ratioP2;P2;SDS_P1;SDS_P2;PMS_P1;PMS_P2;Temp;Humidity;BMP_temperature;BMP_pressure;BME280_temperature;BME280_humidity;BME280_pressure;Samples;Min_cycle;Max_cycle;Signal;HPM_P1;HPM_P2
2022/06/03 00:01:03;;;;;;;6.38;4.35;;;18.60;83.80;;;;;;5054771;28;20312;-39
2022/06/03 00:04:05;;;;;;;4.30;3.90;;;18.50;83.80;;;;;;5042648;28;20725;-40
2022/06/03 00:07:03;;;;;;;4.63;4.18;;;18.50;83.90;;;;;;5042730;28;20213;-39
2022/06/03 00:09:39;;;;;;;5.28;4.18;;;18.50;83.90;;;;;;5033481;28;20224;-41
2022/06/03 00:12:21;;;;;;;5.28;3.92;;;18.40;83.80;;;;;;5049565;28;20290;-41
2022/06/03 00:15:26;;;;;;;4.88;4.20;;;18.40;83.90;;;;;;5047809;28;20663;-39
2022/06/03 00:18:14;;;;;;;4.00;3.67;;;18.40;84.00;;;;;;5038645;28;20291;-40
2022/06/03 00:21:03;;;;;;;5.03;4.13;;;18.40;84.10;;;;;;5059962;28;20306;-41
2022/06/03 00:23:54;;;;;;;4.97;3.90;;;18.30;84.00;;;;;;5039259;28;20304;-41
2022/06/03 00:26:40;;;;;;;5.93;4.32;;;18.30;84.00;;;;;;5053497;28;20207;-39
2022/06/03 00:29:47;;;;;;;4.20;3.80;;;18.30;84.00;;;;;;5040732;28;21261;-52
2022/06/03 00:32:33;;;;;;;4.88;3.83;;;18.30;84.30;;;;;;5046136;28;20196;-50
2022/06/03 00:35:38;;;;;;;4.05;3.30;;;18.20;84.10;;;;;;5046162;28;20603;-50
2022/06/03 00:38:05;;;;;;;4.97;3.70;;;18.20;84.10;;;;;;5029635;28;20650;-50
2022/06/03 00:40:44;;;;;;;3.75;3.28;;;18.10;84.00;;;;;;5046711;28;20315;-52
2022/06/03 00:43:43;;;;;;;5.43;3.50;;;18.10;84.00;;;;;;5048285;28;20596;-50
2022/06/03 00:46:53;;;;;;;5.15;3.55;;;18.10;85.10;;;;;;5043958;28;20617;-51
2022/06/03 00:49:47;;;;;;;4.13;3.72;;;18.10;84.30;;;;;;5041358;28;20208;-49
2022/06/03 00:52:20;;;;;;;3.58;3.25;;;18.00;84.30;;;;;;5036335;28;20727;-50
2022/06/03 00:55:09;;;;;;;4.95;4.13;;;18.00;84.30;;;;;;5028270;28;20208;-50
2022/06/03 00:57:46;;;;;;;4.38;2.90;;;17.90;84.20;;;;;;5040215;28;20201;-52
2022/06/03 01:00:28;;;;;;;3.55;3.25;;;17.90;84.20;;;;;;5052478;28;20243;-51
2022/06/03 01:03:33;;;;;;;3.67;3.30;;;17.90;84.30;;;;;;5023139;28;20255;-52
2022/06/03 01:06:28;;;;;;;4.95;3.53;;;17.90;84.40;;;;;;5046333;28;20207;-52
2022/06/03 01:09:06;;;;;;;3.70;3.30;;;17.80;84.10;;;;;;5041525;28;20255;-52
2022/06/03 01:12:00;;;;;;;4.15;3.75;;;17.80;84.30;;;;;;5051094;28;20260;-52
2022/06/03 01:14:36;;;;;;;3.90;3.35;;;17.80;84.40;;;;;;5054056;28;20230;-51
2022/06/03 01:17:21;;;;;;;3.75;3.38;;;17.70;84.40;;;;;;5039229;28;20221;-52
2022/06/03 01:20:30;;;;;;;4.20;3.78;;;17.70;84.30;;;;;;5063915;28;20850;-52
2022/06/03 01:23:26;;;;;;;3.67;3.38;;;17.70;84.50;;;;;;5039442;28;20292;-51
2022/06/03 01:26:02;;;;;;;4.18;3.78;;;17.60;84.30;;;;;;5049045;28;20687;-52
2022/06/03 01:28:38;;;;;;;4.05;3.65;;;17.60;84.40;;;;;;5044927;28;20689;-52
2022/06/03 01:31:24;;;;;;;4.28;3.85;;;17.60;84.40;;;;;;5049234;28;20299;-52
2022/06/03 01:34:12;;;;;;;4.03;3.63;;;17.60;84.30;;;;;;5039758;28;20560;-51
2022/06/03 01:37:14;;;;;;;3.75;3.42;;;17.60;84.50;;;;;;5048275;28;20247;-51
2022/06/03 01:40:15;;;;;;;4.20;3.80;;;17.50;84.60;;;;;;5033874;28;20211;-52
2022/06/03 01:43:03;;;;;;;3.95;3.53;;;17.50;84.70;;;;;;5045801;28;20196;-52
2022/06/03 01:45:39;;;;;;;4.55;3.65;;;17.50;84.70;;;;;;5043305;28;20216;-51
2022/06/03 01:48:31;;;;;;;3.70;3.40;;;17.50;84.40;;;;;;5032377;28;20246;-52
2022/06/03 01:51:18;;;;;;;5.78;3.88;;;17.50;84.60;;;;;;5068373;28;20215;-52
2022/06/03 01:54:15;;;;;;;4.72;3.50;;;17.40;84.80;;;;;;5045099;28;20216;-52
2022/06/03 01:56:55;;;;;;;4.10;3.13;;;17.40;84.80;;;;;;5043456;28;20204;-52
2022/06/03 01:59:49;;;;;;;3.72;3.35;;;17.30;84.50;;;;;;5042939;28;20303;-51
2022/06/03 02:02:43;;;;;;;5.18;3.60;;;17.30;84.80;;;;;;5044940;28;20667;-50
2022/06/03 02:05:37;;;;;;;4.10;3.70;;;17.20;84.80;;;;;;5033619;28;20289;-41
2022/06/03 02:08:07;;;;;;;5.22;3.70;;;17.20;84.80;;;;;;5035741;28;21779;-40
2022/06/03 02:11:08;;;;;;;3.78;3.47;;;17.10;84.60;;;;;;5048199;28;20267;-40
2022/06/03 02:13:38;;;;;;;4.07;3.67;;;17.10;85.00;;;;;;5039551;28;20655;-41
2022/06/03 02:16:21;;;;;;;4.50;3.53;;;17.10;84.70;;;;;;5027462;28;20209;-40
2022/06/03 02:19:26;;;;;;;4.68;4.25;;;17.10;84.80;;;;;;5043251;28;20326;-40
2022/06/03 02:22:12;;;;;;;4.32;3.50;;;17.10;85.20;;;;;;5031523;28;20598;-40
2022/06/03 02:25:00;;;;;;;4.90;3.60;;;17.00;84.80;;;;;;5033672;28;20543;-40
2022/06/03 02:27:49;;;;;;;4.78;3.80;;;16.90;85.10;;;;;;5042442;28;20447;-40
2022/06/03 02:30:25;;;;;;;4.13;3.72;;;16.90;84.80;;;;;;5041486;28;20232;-40
2022/06/03 02:33:15;;;;;;;4.50;3.95;;;16.90;85.00;;;;;;5028491;28;20295;-40
2022/06/03 02:35:54;;;;;;;4.10;3.67;;;16.80;85.20;;;;;;5029017;28;20316;-40
2022/06/03 02:38:36;;;;;;;4.00;3.70;;;16.80;85.20;;;;;;5041057;28;20267;-40
2022/06/03 02:41:44;;;;;;;4.35;3.78;;;16.80;85.20;;;;;;5045635;28;20223;-40
2022/06/03 02:44:42;;;;;;;4.38;3.80;;;16.70;85.20;;;;;;5027022;28;20212;-40
2022/06/03 02:47:40;;;;;;;4.85;4.15;;;16.70;85.40;;;;;;5028045;28;20214;-40
2022/06/03 02:50:31;;;;;;;4.15;3.75;;;16.70;85.50;;;;;;5031268;28;20670;-40
2022/06/03 02:53:26;;;;;;;4.15;3.60;;;16.60;85.50;;;;;;5040586;28;20678;-41
2022/06/03 02:56:07;;;;;;;5.07;4.15;;;16.60;85.40;;;;;;5027890;28;20351;-40
2022/06/03 02:58:59;;;;;;;7.15;3.40;;;16.60;85.60;;;;;;5044963;28;20725;-40
2022/06/03 03:01:51;;;;;;;4.38;3.97;;;16.50;85.40;;;;;;5049849;28;20295;-39
2022/06/03 03:04:21;;;;;;;4.35;3.45;;;16.50;85.50;;;;;;5030053;28;20245;-40
2022/06/03 03:07:00;;;;;;;3.90;3.50;;;16.50;85.60;;;;;;5027900;28;20311;-41
2022/06/03 03:10:04;;;;;;;5.03;3.53;;;16.40;85.40;;;;;;5057692;28;20210;-41
2022/06/03 03:12:58;;;;;;;4.25;3.50;;;16.40;85.90;;;;;;5056021;28;20258;-39
2022/06/03 03:16:10;;;;;;;4.63;3.80;;;16.40;85.90;;;;;;5025899;28;20221;-39
2022/06/03 03:19:07;;;;;;;4.03;3.63;;;16.30;85.70;;;;;;5037185;28;20209;-39
2022/06/03 03:22:07;;;;;;;3.60;3.30;;;16.30;85.70;;;;;;5045748;28;20347;-39
2022/06/03 03:24:53;;;;;;;4.38;3.40;;;16.30;85.80;;;;;;5031434;28;20205;-39
2022/06/03 03:27:23;;;;;;;4.53;3.30;;;16.30;85.70;;;;;;5039871;28;20208;-39
2022/06/03 03:30:24;;;;;;;3.55;3.22;;;16.30;85.50;;;;;;5030369;28;20305;-50
2022/06/03 03:33:29;;;;;;;6.47;3.45;;;16.30;85.70;;;;;;5031509;28;20675;-50
2022/06/03 03:36:24;;;;;;;3.80;3.25;;;16.30;85.80;;;;;;5046314;28;20648;-51
2022/06/03 03:39:30;;;;;;;4.93;3.50;;;16.30;85.80;;;;;;5035456;28;21404;-50
2022/06/03 03:42:19;;;;;;;4.10;3.42;;;16.30;86.10;;;;;;5030804;28;20728;-50
2022/06/03 03:45:11;;;;;;;4.57;3.25;;;16.30;86.20;;;;;;5030216;28;20224;-50
2022/06/03 03:48:15;;;;;;;4.15;3.72;;;16.20;85.70;;;;;;5039450;28;20212;-53
2022/06/03 03:50:48;;;;;;;6.53;3.70;;;16.20;86.00;;;;;;5051972;28;20249;-50
2022/06/03 03:53:33;;;;;;;4.50;3.80;;;16.20;85.90;;;;;;5047983;28;20287;-50
2022/06/03 03:56:31;;;;;;;4.43;3.42;;;16.20;86.20;;;;;;5035200;28;20203;-49
2022/06/03 03:59:14;;;;;;;4.10;3.65;;;16.20;86.30;;;;;;5030130;28;20217;-49
2022/06/03 04:02:11;;;;;;;3.85;3.50;;;16.30;86.40;;;;;;5035136;28;20224;-51
2022/06/03 04:05:16;;;;;;;4.00;3.70;;;16.30;86.40;;;;;;5046110;28;20768;-51
2022/06/03 04:08:11;;;;;;;4.25;3.83;;;16.20;86.20;;;;;;5049982;28;20212;-51
2022/06/03 04:10:57;;;;;;;5.70;3.78;;;16.20;86.20;;;;;;5046288;28;20569;-50
2022/06/03 04:13:38;;;;;;;4.25;3.85;;;16.20;86.20;;;;;;5038309;28;20200;-51
2022/06/03 04:16:14;;;;;;;4.90;3.47;;;16.30;86.60;;;;;;5042756;28;20277;-50
2022/06/03 04:19:01;;;;;;;4.78;3.80;;;16.20;86.50;;;;;;5045858;28;20641;-51
2022/06/03 04:22:04;;;;;;;4.85;3.97;;;16.20;86.50;;;;;;5040556;28;20669;-51
2022/06/03 04:25:08;;;;;;;3.75;3.45;;;16.30;86.60;;;;;;5042647;28;20615;-51
2022/06/03 04:27:48;;;;;;;8.35;4.25;;;16.30;86.90;;;;;;5048596;28;20709;-51
2022/06/03 04:30:43;;;;;;;4.60;3.97;;;16.30;86.70;;;;;;5036614;28;20578;-51
2022/06/03 04:33:47;;;;;;;4.47;3.85;;;16.30;87.10;;;;;;5053617;28;20227;-51
2022/06/03 04:36:50;;;;;;;4.72;4.22;;;16.40;87.20;;;;;;5049260;28;20769;-51
2022/06/03 04:39:39;;;;;;;4.72;3.83;;;16.30;87.40;;;;;;5054160;28;20310;-51
2022/06/03 04:42:15;;;;;;;6.90;4.55;;;16.30;87.20;;;;;;5050105;28;20322;-49
2022/06/03 04:45:12;;;;;;;5.75;4.30;;;16.40;87.40;;;;;;5034365;28;20208;-51
2022/06/03 04:48:01;;;;;;;4.50;3.83;;;16.40;87.40;;;;;;5030383;28;20217;-51
2022/06/03 04:51:02;;;;;;;5.82;4.03;;;16.40;87.30;;;;;;5043986;28;20208;-51
2022/06/03 04:53:56;;;;;;;8.18;4.30;;;16.50;87.50;;;;;;5044109;28;20254;-50
2022/06/03 04:56:44;;;;;;;5.22;3.88;;;16.50;87.50;;;;;;5056001;28;20235;-50
2022/06/03 04:59:14;;;;;;;5.75;4.20;;;16.50;87.40;;;;;;5029362;28;20201;-49
2022/06/03 05:02:14;;;;;;;5.75;4.57;;;16.60;87.60;;;;;;5035415;28;20220;-50
2022/06/03 05:04:53;;;;;;;5.93;4.40;;;16.60;87.90;;;;;;5047994;28;20810;-51
2022/06/03 05:07:59;;;;;;;5.43;4.30;;;16.60;87.90;;;;;;5035929;28;20271;-51
2022/06/03 05:10:52;;;;;;;5.22;4.15;;;16.60;88.10;;;;;;5040025;28;20200;-52
2022/06/03 05:13:56;;;;;;;7.47;4.10;;;16.70;88.10;;;;;;5043621;28;20212;-52
2022/06/03 05:16:59;;;;;;;6.93;4.25;;;16.70;88.10;;;;;;5044224;28;20287;-50
2022/06/03 05:20:06;;;;;;;8.70;4.53;;;16.70;88.10;;;;;;5043680;28;20199;-51
2022/06/03 05:22:33;;;;;;;6.28;4.13;;;16.70;88.20;;;;;;5047667;28;20785;-51
2022/06/03 05:25:12;;;;;;;5.05;4.03;;;16.80;88.20;;;;;;5053654;28;20204;-51
2022/06/03 05:28:09;;;;;;;7.85;4.55;;;16.80;88.40;;;;;;5046895;28;20220;-51
2022/06/03 05:30:59;;;;;;;6.28;4.40;;;16.90;88.60;;;;;;5034933;28;21085;-50
2022/06/03 05:33:47;;;;;;;5.57;3.97;;;16.90;88.80;;;;;;5063302;28;20600;-51
2022/06/03 05:36:35;;;;;;;7.53;4.65;;;16.90;88.60;;;;;;5058998;28;20207;-51
2022/06/03 05:39:33;;;;;;;6.18;4.32;;;17.00;88.70;;;;;;5040481;28;20208;-50
2022/06/03 05:42:27;;;;;;;10.80;4.13;;;17.00;88.80;;;;;;5049325;28;20306;-51
2022/06/03 05:45:19;;;;;;;8.43;5.07;;;17.10;89.00;;;;;;5041204;28;20555;-50
2022/06/03 05:47:54;;;;;;;4.93;4.22;;;17.10;89.00;;;;;;5043270;28;20736;-50
2022/06/03 05:50:51;;;;;;;7.22;4.20;;;17.20;89.00;;;;;;5058302;28;20565;-50
2022/06/03 05:53:28;;;;;;;5.63;4.60;;;17.20;89.20;;;;;;5040703;28;20258;-50
2022/06/03 05:56:16;;;;;;;5.35;3.80;;;17.20;89.20;;;;;;5031434;28;20215;-50
2022/06/03 05:59:09;;;;;;;6.38;4.65;;;17.30;89.30;;;;;;5029130;28;20336;-51
2022/06/03 06:01:54;;;;;;;4.93;3.95;;;17.30;89.50;;;;;;5029293;28;20307;-49
2022/06/03 06:04:33;;;;;;;6.07;4.45;;;17.40;89.60;;;;;;5027219;28;20793;-51
2022/06/03 06:07:09;;;;;;;6.10;4.32;;;17.40;89.80;;;;;;5030211;28;20251;-51
2022/06/03 06:09:45;;;;;;;6.10;4.18;;;17.40;89.60;;;;;;5035714;28;20219;-47
2022/06/03 06:12:20;;;;;;;7.43;4.07;;;17.50;89.60;;;;;;5037718;28;20697;-50
2022/06/03 06:15:06;;;;;;;10.15;4.57;;;17.50;89.80;;;;;;5036436;28;20325;-50
2022/06/03 06:18:07;;;;;;;7.22;4.00;;;17.60;89.80;;;;;;5036743;28;20208;-51
2022/06/03 06:21:13;;;;;;;9.40;4.30;;;17.60;89.80;;;;;;5048705;28;20202;-51
2022/06/03 06:23:58;;;;;;;9.32;3.95;;;17.70;90.00;;;;;;5034994;28;20200;-50
2022/06/03 06:26:33;;;;;;;7.78;3.72;;;17.70;90.00;;;;;;5055595;28;20207;-50
2022/06/03 06:29:38;;;;;;;8.88;3.65;;;17.80;90.30;;;;;;5031345;28;20191;-51
2022/06/03 06:32:53;;;;;;;6.95;3.55;;;17.80;90.00;;;;;;5028161;28;20243;-50
2022/06/03 06:36:00;;;;;;;4.00;2.92;;;17.90;90.00;;;;;;5041737;28;20686;-51
2022/06/03 06:38:48;;;;;;;6.15;3.25;;;18.00;90.10;;;;;;5060737;28;20211;-52
2022/06/03 06:41:21;;;;;;;7.15;3.78;;;18.00;90.20;;;;;;5046872;28;20224;-51
2022/06/03 06:44:06;;;;;;;6.43;3.72;;;18.10;90.20;;;;;;5051184;28;20262;-50
2022/06/03 06:46:59;;;;;;;7.13;4.18;;;18.20;90.30;;;;;;5037814;28;20278;-57
2022/06/03 06:49:38;;;;;;;4.03;2.92;;;18.30;90.30;;;;;;5054512;28;20207;-51
2022/06/03 06:52:46;;;;;;;6.82;3.60;;;18.30;90.30;;;;;;5042010;28;20559;-51
2022/06/03 06:55:34;;;;;;;5.97;3.20;;;18.40;90.50;;;;;;5055392;28;20677;-51
2022/06/03 06:58:24;;;;;;;5.70;3.05;;;18.50;90.50;;;;;;5059850;28;20235;-50
2022/06/03 07:00:55;;;;;;;3.42;3.10;;;18.50;90.40;;;;;;5051008;28;20205;-50
2022/06/03 07:03:47;;;;;;;3.85;2.60;;;18.60;90.50;;;;;;5056220;28;20226;-50
2022/06/03 07:06:25;;;;;;;4.25;2.67;;;18.70;90.50;;;;;;5032701;28;20201;-50
2022/06/03 07:09:07;;;;;;;4.32;2.38;;;18.70;90.60;;;;;;5041544;28;20207;-48
2022/06/03 07:12:13;;;;;;;4.43;2.70;;;18.80;90.60;;;;;;5056927;28;20203;-50
2022/06/03 07:15:05;;;;;;;3.55;2.38;;;18.90;90.70;;;;;;5044209;28;20231;-49
2022/06/03 07:21:23;;;;;;;2.63;2.42;;;19.10;90.70;;;;;;5058440;28;20242;-49
2022/06/03 07:24:02;;;;;;;3.90;2.30;;;19.10;90.70;;;;;;5054436;28;20559;-49
2022/06/03 07:26:50;;;;;;;3.75;2.50;;;19.20;90.80;;;;;;5047614;28;20203;-49
2022/06/03 07:29:22;;;;;;;5.53;2.28;;;19.30;90.80;;;;;;5047004;28;20205;-50
2022/06/03 07:32:10;;;;;;;4.00;2.55;;;19.40;90.80;;;;;;5052973;28;20200;-49
2022/06/03 07:34:49;;;;;;;4.90;2.40;;;19.40;90.90;;;;;;5044592;28;20270;-49
2022/06/03 07:37:31;;;;;;;4.75;2.30;;;19.50;90.90;;;;;;5051263;28;20694;-49
2022/06/03 07:40:23;;;;;;;3.63;1.80;;;19.60;90.90;;;;;;5055227;28;20266;-49
2022/06/03 07:43:29;;;;;;;3.83;1.73;;;19.60;91.00;;;;;;5052750;28;20321;-49
2022/06/03 07:46:03;;;;;;;5.00;1.60;;;19.70;91.00;;;;;;5046518;28;20227;-49
2022/06/03 07:48:33;;;;;;;3.00;2.03;;;19.80;91.10;;;;;;5052718;28;20278;-50
2022/06/03 07:51:20;;;;;;;2.40;1.75;;;19.80;91.10;;;;;;5065873;28;20686;-49
2022/06/03 07:53:50;;;;;;;1.95;1.30;;;19.90;91.20;;;;;;5046064;28;20347;-50
2022/06/03 07:56:46;;;;;;;2.38;1.60;;;20.00;91.30;;;;;;5057132;28;20250;-49
2022/06/03 07:59:17;;;;;;;3.60;1.90;;;20.10;91.30;;;;;;5053841;28;20298;-49
2022/06/03 08:02:02;;;;;;;3.08;2.30;;;20.20;91.40;;;;;;5057345;28;20228;-49
2022/06/03 08:04:35;;;;;;;4.53;2.47;;;20.40;91.50;;;;;;5060094;28;20359;-49
2022/06/03 08:12:57;;;;;;;2.30;2.10;;;20.60;91.60;;;;;;5047217;28;20223;-48
2022/06/03 08:15:29;;;;;;;3.05;2.17;;;20.60;91.60;;;;;;5042296;28;20292;-48
2022/06/03 08:17:58;;;;;;;2.63;1.80;;;20.60;91.60;;;;;;5053975;28;20253;-47
2022/06/03 08:20:28;;;;;;;5.85;1.95;;;20.70;91.60;;;;;;5067597;28;20674;-47
2022/06/03 08:22:56;;;;;;;3.13;1.67;;;20.70;91.60;;;;;;5055766;28;20232;-47
2022/06/03 08:25:35;;;;;;;7.10;1.80;;;20.80;91.70;;;;;;5069271;28;20345;-49
2022/06/03 08:28:02;;;;;;;2.97;1.90;;;20.90;91.70;;;;;;5048737;28;20249;-47
2022/06/03 08:30:32;;;;;;;1.70;1.60;;;20.90;91.70;;;;;;5038600;28;20529;-49
2022/06/03 08:33:06;;;;;;;2.58;1.88;;;21.00;91.80;;;;;;5057719;28;20219;-48
2022/06/03 08:35:36;;;;;;;5.28;1.90;;;21.00;91.80;;;;;;5052386;28;20253;-48
2022/06/03 08:38:15;;;;;;;2.38;1.92;;;21.10;91.80;;;;;;5036416;28;20228;-48
2022/06/03 08:41:04;;;;;;;4.30;1.90;;;21.20;91.90;;;;;;5049183;28;20299;-48
2022/06/03 08:43:57;;;;;;;3.35;1.90;;;21.20;91.80;;;;;;5058522;28;20232;-48
2022/06/03 08:46:28;;;;;;;2.47;1.70;;;21.30;91.80;;;;;;5055351;28;20223;-48
2022/06/03 08:49:10;;;;;;;1.83;1.60;;;21.30;91.80;;;;;;5041207;28;20208;-48
2022/06/03 08:51:45;;;;;;;1.80;1.52;;;21.30;91.80;;;;;;5046823;28;20264;-49
2022/06/03 08:54:27;;;;;;;2.55;1.58;;;21.40;91.80;;;;;;5059343;28;20234;-48
2022/06/03 08:57:27;;;;;;;4.03;1.80;;;21.50;91.80;;;;;;5058373;28;20207;-48
2022/06/03 09:00:20;;;;;;;3.28;1.60;;;21.50;91.80;;;;;;5051841;28;20209;-49
2022/06/03 09:03:02;;;;;;;2.08;1.60;;;21.60;91.70;;;;;;5051821;28;20236;-48
2022/06/03 09:06:10;;;;;;;1.35;1.25;;;21.60;91.50;;;;;;5051250;28;20572;-48
2022/06/03 09:08:54;;;;;;;1.92;1.40;;;21.70;91.80;;;;;;5029298;28;20208;-48
2022/06/03 09:11:40;;;;;;;2.42;1.50;;;21.80;91.90;;;;;;5052050;28;20615;-48
2022/06/03 09:14:12;;;;;;;2.88;1.40;;;21.90;91.70;;;;;;5050457;28;20216;-48
2022/06/03 09:16:40;;;;;;;2.30;1.60;;;21.90;91.60;;;;;;5055882;28;20196;-48
2022/06/03 09:19:12;;;;;;;2.28;1.77;;;22.00;91.70;;;;;;5057508;28;20218;-48
2022/06/03 09:21:46;;;;;;;1.60;1.50;;;22.10;91.50;;;;;;5051191;28;20271;-48
2022/06/03 09:24:21;;;;;;;1.95;1.30;;;22.10;91.70;;;;;;5030163;28;20205;-48
2022/06/03 09:26:52;;;;;;;2.90;1.63;;;22.20;91.90;;;;;;5050439;28;20224;-48
2022/06/03 09:29:24;;;;;;;3.72;1.40;;;22.30;92.00;;;;;;5066357;28;20199;-48
2022/06/03 09:32:03;;;;;;;1.42;1.20;;;22.40;92.00;;;;;;5057016;28;20211;-49
2022/06/03 09:34:43;;;;;;;2.95;1.60;;;22.50;92.10;;;;;;5069669;28;20211;-48
2022/06/03 09:37:16;;;;;;;3.85;1.42;;;22.60;92.00;;;;;;5062599;28;20778;-49
2022/06/03 09:39:46;;;;;;;2.90;1.77;;;22.60;92.00;;;;;;5047079;28;20228;-49
2022/06/03 09:42:16;;;;;;;2.13;1.38;;;22.70;92.10;;;;;;5052822;28;20237;-50
2022/06/03 09:44:47;;;;;;;2.45;1.40;;;22.80;92.10;;;;;;5043538;28;20205;-50
2022/06/03 09:47:19;;;;;;;1.67;1.33;;;22.80;91.90;;;;;;5061443;28;20257;-49
2022/06/03 09:49:50;;;;;;;1.50;1.10;;;23.00;91.90;;;;;;5069205;28;20276;-52
2022/06/03 09:52:22;;;;;;;2.15;1.30;;;23.00;92.00;;;;;;5052201;28;20206;-49
2022/06/03 09:54:53;;;;;;;1.85;1.30;;;23.10;91.70;;;;;;5045160;28;20438;-49
2022/06/03 09:57:30;;;;;;;1.98;1.10;;;23.10;91.70;;;;;;5041444;28;20319;-49
2022/06/03 10:00:13;;;;;;;1.48;0.90;;;23.30;92.10;;;;;;5037794;28;20282;-48
2022/06/03 10:02:44;;;;;;;1.63;1.30;;;23.40;92.00;;;;;;5060134;28;20314;-49
2022/06/03 10:05:19;;;;;;;3.25;1.20;;;23.40;92.00;;;;;;5053515;28;20721;-49
2022/06/03 10:07:51;;;;;;;2.90;1.30;;;23.50;92.20;;;;;;5045735;28;20330;-49
2022/06/03 10:13:08;;;;;;;2.72;1.50;;;23.70;91.90;;;;;;5048328;28;20274;-50
2022/06/03 10:15:53;;;;;;;3.00;1.35;;;23.80;92.10;;;;;;5045501;28;20195;-49
2022/06/03 10:18:35;;;;;;;2.15;1.10;;;23.80;92.00;;;;;;5050655;28;20199;-50
2022/06/03 10:21:05;;;;;;;3.40;1.10;;;24.00;92.00;;;;;;5067572;28;20391;-50
2022/06/03 10:23:56;;;;;;;1.30;1.08;;;24.00;91.30;;;;;;5063745;28;20336;-49
2022/06/03 10:26:50;;;;;;;4.38;1.27;;;24.10;91.60;;;;;;5059402;28;20610;-49
2022/06/03 10:29:25;;;;;;;2.10;1.10;;;24.20;91.40;;;;;;5026950;28;20618;-40
2022/06/03 10:32:10;;;;;;;1.58;1.27;;;24.30;92.00;;;;;;5044025;28;20216;-39
2022/06/03 10:34:44;;;;;;;4.85;1.23;;;24.30;91.60;;;;;;5055971;28;20195;-39
2022/06/03 10:37:34;;;;;;;1.30;1.02;;;24.40;91.60;;;;;;5055325;28;20673;-39
2022/06/03 10:40:01;;;;;;;1.00;0.98;;;24.40;91.70;;;;;;5045975;28;20204;-40
2022/06/03 10:42:32;;;;;;;3.15;1.15;;;24.50;91.80;;;;;;5061745;28;20223;-40
2022/06/03 10:45:01;;;;;;;3.35;1.35;;;24.50;91.80;;;;;;5045613;28;20204;-40
2022/06/03 10:47:40;;;;;;;6.88;2.00;;;24.60;91.90;;;;;;5043954;28;20257;-40
2022/06/03 10:50:31;;;;;;;4.65;1.48;;;24.70;91.90;;;;;;5052195;28;20882;-40
2022/06/03 11:02:27;;;;;;;3.00;1.30;;;25.00;91.90;;;;;;5040964;28;20225;-39
2022/06/03 11:05:09;;;;;;;2.33;1.42;;;25.00;91.70;;;;;;5033512;28;20244;-39
2022/06/03 11:07:39;;;;;;;4.07;1.50;;;25.10;91.60;;;;;;5045256;28;20651;-39
2022/06/03 11:10:13;;;;;;;2.85;1.25;;;25.10;91.80;;;;;;5054554;28;20283;-39
2022/06/03 11:13:02;;;;;;;1.75;1.33;;;25.20;91.80;;;;;;5056071;28;20684;-39
2022/06/03 11:15:41;;;;;;;2.80;1.15;;;25.30;91.60;;;;;;5048735;28;20951;-41
2022/06/03 11:18:20;;;;;;;1.30;1.20;;;25.30;91.60;;;;;;5043023;28;20304;-40
2022/06/03 11:20:50;;;;;;;1.23;1.13;;;25.40;91.40;;;;;;5043396;28;20583;-41
2022/06/03 11:23:18;;;;;;;3.03;1.33;;;25.40;91.60;;;;;;5043144;28;20336;-41
2022/06/03 11:25:56;;;;;;;2.33;1.23;;;25.50;91.70;;;;;;5065231;28;20269;-40
2022/06/03 11:28:54;;;;;;;2.58;1.10;;;25.50;91.80;;;;;;5063793;28;20599;-41
2022/06/03 11:31:47;;;;;;;2.90;1.20;;;25.60;92.00;;;;;;5042632;28;20200;-40
2022/06/03 11:34:23;;;;;;;1.67;1.27;;;25.70;91.30;;;;;;5041714;28;20208;-39
2022/06/03 11:36:58;;;;;;;3.00;1.48;;;25.70;91.30;;;;;;5042994;28;20211;-44
2022/06/03 11:39:32;;;;;;;1.17;1.02;;;25.70;91.60;;;;;;5038361;28;20651;-40
2022/06/03 11:42:12;;;;;;;2.40;1.40;;;25.80;91.20;;;;;;5040332;28;20199;-40
2022/06/03 11:44:53;;;;;;;2.90;1.42;;;25.70;91.00;;;;;;5060384;28;20212;-39
2022/06/03 11:47:23;;;;;;;2.50;1.20;;;25.80;90.80;;;;;;5050574;28;20248;-39
2022/06/03 11:49:51;;;;;;;1.45;1.00;;;25.80;91.10;;;;;;5034677;28;20303;-39
2022/06/03 11:52:24;;;;;;;2.13;1.00;;;25.80;91.10;;;;;;5040501;28;20633;-39
2022/06/03 11:54:54;;;;;;;4.32;1.20;;;26.00;91.40;;;;;;5042923;28;20304;-39
2022/06/03 11:57:22;;;;;;;5.00;1.30;;;26.00;91.10;;;;;;5044457;28;20513;-40
2022/06/03 12:00:14;;;;;;;1.98;1.25;;;26.10;91.30;;;;;;5043937;28;20206;-40
2022/06/03 12:03:02;;;;;;;3.22;1.10;;;26.20;90.90;;;;;;5054643;28;20737;-40
2022/06/03 12:05:48;;;;;;;4.10;1.20;;;26.30;91.40;;;;;;5043221;28;20247;-43
2022/06/03 12:08:32;;;;;;;2.30;1.20;;;26.40;91.30;;;;;;5043730;28;20255;-40
2022/06/03 12:11:07;;;;;;;1.30;1.20;;;26.40;91.50;;;;;;5047285;28;20223;-40
2022/06/03 12:13:34;;;;;;;2.03;1.10;;;26.50;91.20;;;;;;5048248;28;20207;-40
2022/06/03 12:16:17;;;;;;;1.50;1.10;;;26.50;91.30;;;;;;5045801;28;20291;-40
2022/06/03 12:18:56;;;;;;;1.85;1.13;;;26.60;91.10;;;;;;5050336;28;20215;-40
2022/06/03 12:21:32;;;;;;;2.53;1.30;;;26.60;91.30;;;;;;5040512;28;20669;-40
2022/06/03 12:24:38;;;;;;;1.83;1.48;;;26.70;91.30;;;;;;5048899;28;20443;-40
2022/06/03 12:27:16;;;;;;;1.50;1.10;;;26.70;91.10;;;;;;5048999;28;20209;-40
2022/06/03 12:30:05;;;;;;;2.08;1.13;;;26.70;90.90;;;;;;5047857;28;20759;-40
2022/06/03 12:32:36;;;;;;;2.38;1.02;;;26.70;90.80;;;;;;5053286;28;20517;-40
2022/06/03 12:35:42;;;;;;;2.10;1.20;;;26.70;91.10;;;;;;5040459;28;20227;-40
2022/06/03 12:38:19;;;;;;;1.42;1.00;;;26.70;90.90;;;;;;5058943;28;20235;-39
2022/06/03 12:40:51;;;;;;;2.30;1.20;;;26.80;91.10;;;;;;5040425;28;20205;-39
2022/06/03 12:43:56;;;;;;;2.10;1.20;;;26.80;90.30;;;;;;5032729;28;20240;-39
2022/06/03 12:46:34;;;;;;;2.55;1.10;;;26.80;90.50;;;;;;5029634;28;20916;-39
2022/06/03 12:49:04;;;;;;;2.65;1.30;;;26.80;89.00;;;;;;5047113;28;20203;-39
2022/06/03 12:51:34;;;;;;;3.28;1.20;;;26.80;90.50;;;;;;5041660;28;20731;-39
2022/06/03 12:54:17;;;;;;;0.98;0.90;;;26.90;90.50;;;;;;5064468;28;20246;-39
2022/06/03 12:57:08;;;;;;;2.90;1.20;;;26.90;89.70;;;;;;5048893;28;20575;-39
2022/06/03 12:59:54;;;;;;;1.42;1.13;;;26.90;90.50;;;;;;5029522;28;20651;-39
2022/06/03 13:02:26;;;;;;;1.48;1.10;;;26.90;89.20;;;;;;5048275;28;20203;-39
2022/06/03 13:04:53;;;;;;;2.63;1.45;;;26.90;90.40;;;;;;5034829;28;20237;-39
2022/06/03 13:07:26;;;;;;;1.38;1.00;;;26.90;89.00;;;;;;5067232;28;20307;-40
2022/06/03 13:10:19;;;;;;;2.42;1.10;;;27.00;89.90;;;;;;5064261;28;20220;-40
2022/06/03 13:12:49;;;;;;;1.77;1.17;;;27.00;89.60;;;;;;5052873;28;20247;-40
2022/06/03 13:15:16;;;;;;;1.55;1.20;;;27.00;89.60;;;;;;5046456;28;20200;-40
2022/06/03 13:18:10;;;;;;;4.35;1.40;;;27.00;90.10;;;;;;5036742;28;20426;-40
2022/06/03 13:21:10;;;;;;;2.33;1.08;;;27.00;87.40;;;;;;5056842;28;20235;-40
2022/06/03 13:23:45;;;;;;;2.60;1.30;;;27.00;90.00;;;;;;5050247;28;20219;-40
2022/06/03 13:26:24;;;;;;;1.63;1.00;;;27.00;90.00;;;;;;5067568;28;20231;-40
2022/06/03 13:29:07;;;;;;;1.42;1.20;;;27.00;89.20;;;;;;5065079;28;20653;-40
2022/06/03 13:31:40;;;;;;;3.33;1.30;;;27.00;89.30;;;;;;5060307;28;20195;-40
2022/06/03 13:34:10;;;;;;;1.30;1.20;;;27.00;89.20;;;;;;5048822;28;20210;-39
2022/06/03 13:36:50;;;;;;;1.60;1.00;;;27.00;89.10;;;;;;5044091;28;20212;-40
2022/06/03 13:39:23;;;;;;;1.83;1.10;;;27.00;89.20;;;;;;5036165;28;20262;-40
2022/06/03 13:44:50;;;;;;;1.25;1.10;;;27.10;89.20;;;;;;5044809;28;20319;-40
2022/06/03 13:47:28;;;;;;;4.22;1.40;;;27.10;89.30;;;;;;5048475;28;20805;-40
2022/06/03 13:50:18;;;;;;;2.13;1.20;;;27.10;89.10;;;;;;5065220;28;20200;-40
2022/06/03 13:53:13;;;;;;;3.03;1.23;;;27.10;89.50;;;;;;5042147;28;20304;-40
2022/06/03 13:55:48;;;;;;;2.28;1.13;;;27.20;89.90;;;;;;5035089;28;20308;-40
2022/06/03 13:58:22;;;;;;;2.05;1.40;;;27.30;90.10;;;;;;5063870;28;20196;-40
2022/06/03 14:00:59;;;;;;;2.38;1.42;;;27.30;87.40;;;;;;5032218;28;20675;-40
2022/06/03 14:03:33;;;;;;;2.92;1.20;;;27.40;89.30;;;;;;5052582;28;20220;-40
2022/06/03 14:06:08;;;;;;;1.55;1.42;;;27.40;89.90;;;;;;5058606;28;20199;-40
2022/06/03 14:08:46;;;;;;;2.53;1.30;;;27.40;88.80;;;;;;5044722;28;20670;-40
2022/06/03 14:11:26;;;;;;;2.38;1.40;;;27.40;88.60;;;;;;5053179;28;20216;-39
2022/06/03 14:14:00;;;;;;;3.55;1.42;;;27.40;89.00;;;;;;5055608;28;20200;-40
2022/06/03 14:16:38;;;;;;;2.53;1.30;;;27.40;89.00;;;;;;5055310;28;20336;-39
2022/06/03 14:19:09;;;;;;;2.08;1.30;;;27.40;88.80;;;;;;5063570;28;20199;-40
2022/06/03 14:21:57;;;;;;;4.35;2.17;;;27.30;88.00;;;;;;5058651;28;20551;-40
2022/06/03 14:24:34;;;;;;;3.72;1.70;;;27.30;88.70;;;;;;5053360;28;21020;-40
2022/06/03 14:27:13;;;;;;;1.70;1.60;;;27.30;87.80;;;;;;5047524;28;20208;-39
2022/06/03 14:29:50;;;;;;;3.83;1.73;;;27.30;88.50;;;;;;5048657;28;20203;-39
2022/06/03 14:32:20;;;;;;;3.30;1.63;;;27.30;85.50;;;;;;5052417;28;20221;-40
2022/06/03 14:34:50;;;;;;;1.40;1.30;;;27.20;87.90;;;;;;5038591;28;20302;-40
2022/06/03 14:37:21;;;;;;;5.72;1.65;;;27.20;88.30;;;;;;5043660;28;20633;-40
2022/06/03 14:39:53;;;;;;;2.15;1.52;;;27.20;88.10;;;;;;5036973;28;20215;-40